Terminal Aerodrome Forecast
Issued by NWS Wilmington, OH

Current Version | Previous Version | Graphics & Text | Print | Product List | Glossary On
Versions: 1 2 3 4 5 6 7 8 9 10 11 12 13 14 15 16 17 18
887
FTUS41 KILN 190356 AAA
TAFDAY
TAF AMD
KDAY 190356Z 1904/1924 21015KT P6SM SKC
     FM191300 22015G24KT P6SM SCT100 BKN250=

USA.gov is the U.S. government's official web portal to all federal, state and local government web resources and services.